sensor_id;sensor_type;location;lat;lon;timestamp;pressure;altitude;pressure_sealevel;temperature;humidity
65019;BME280;66069;51.164;-114.452;2023-01-26T00:00:56;88840.94;;;17.31;43.92
65019;BME280;66069;51.164;-114.452;2023-01-26T00:03:22;88844.38;;;17.35;44.00
65019;BME280;66069;51.164;-114.452;2023-01-26T00:05:49;88830.34;;;17.27;43.94
65019;BME280;66069;51.164;-114.452;2023-01-26T00:08:15;88828.81;;;17.22;43.82
65019;BME280;66069;51.164;-114.452;2023-01-26T00:10:42;88844.72;;;17.30;43.61
65019;BME280;66069;51.164;-114.452;2023-01-26T00:13:17;88841.69;;;17.24;43.75
65019;BME280;66069;51.164;-114.452;2023-01-26T00:15:47;88852.69;;;17.33;43.77
65019;BME280;66069;51.164;-114.452;2023-01-26T00:18:14;88832.59;;;17.21;43.87
65019;BME280;66069;51.164;-114.452;2023-01-26T00:20:40;88824.66;;;17.21;43.80
65019;BME280;66069;51.164;-114.452;2023-01-26T00:23:07;88827.28;;;17.18;43.78
65019;BME280;66069;51.164;-114.452;2023-01-26T00:25:33;88836.75;;;17.19;43.59
65019;BME280;66069;51.164;-114.452;2023-01-26T00:27:59;88843.19;;;17.21;43.43
65019;BME280;66069;51.164;-114.452;2023-01-26T00:30:26;88841.66;;;17.17;43.50
65019;BME280;66069;51.164;-114.452;2023-01-26T00:32:52;88824.63;;;17.11;43.54
65019;BME280;66069;51.164;-114.452;2023-01-26T00:35:18;88839.03;;;17.20;43.64
65019;BME280;66069;51.164;-114.452;2023-01-26T00:37:45;88837.13;;;17.10;43.57
65019;BME280;66069;51.164;-114.452;2023-01-26T00:40:11;88871.97;;;17.16;43.65
65019;BME280;66069;51.164;-114.452;2023-01-26T00:42:37;88851.84;;;17.08;43.50
65019;BME280;66069;51.164;-114.452;2023-01-26T00:45:05;88856.41;;;17.11;43.52
65019;BME280;66069;51.164;-114.452;2023-01-26T00:47:31;88870.78;;;17.13;43.59
65019;BME280;66069;51.164;-114.452;2023-01-26T00:49:58;88861.69;;;17.07;43.75
65019;BME280;66069;51.164;-114.452;2023-01-26T00:52:24;88836.75;;;17.08;43.83
65019;BME280;66069;51.164;-114.452;2023-01-26T00:54:53;88845.84;;;17.18;43.83
65019;BME280;66069;51.164;-114.452;2023-01-26T00:57:19;88857.94;;;17.08;44.07
65019;BME280;66069;51.164;-114.452;2023-01-26T00:59:45;88863.97;;;17.12;43.91
65019;BME280;66069;51.164;-114.452;2023-01-26T01:02:11;88844.31;;;17.10;43.88
65019;BME280;66069;51.164;-114.452;2023-01-26T01:04:38;88842.06;;;17.15;44.00
65019;BME280;66069;51.164;-114.452;2023-01-26T01:07:04;88845.44;;;17.09;43.96
65019;BME280;66069;51.164;-114.452;2023-01-26T01:09:33;88871.19;;;17.15;43.86
65019;BME280;66069;51.164;-114.452;2023-01-26T01:12:00;88862.50;;;17.15;44.00
65019;BME280;66069;51.164;-114.452;2023-01-26T01:14:26;88839.75;;;17.10;44.12
65019;BME280;66069;51.164;-114.452;2023-01-26T01:16:52;88840.53;;;17.14;44.33
65019;BME280;66069;51.164;-114.452;2023-01-26T01:19:19;88837.13;;;17.10;44.31
65019;BME280;66069;51.164;-114.452;2023-01-26T01:21:46;88824.97;;;17.06;44.36
65019;BME280;66069;51.164;-114.452;2023-01-26T01:24:12;88827.25;;;17.07;44.41
65019;BME280;66069;51.164;-114.452;2023-01-26T01:26:39;88848.84;;;17.20;44.38
65019;BME280;66069;51.164;-114.452;2023-01-26T01:29:06;88824.63;;;17.14;44.36
65019;BME280;66069;51.164;-114.452;2023-01-26T01:31:32;88826.13;;;17.12;44.57
65019;BME280;66069;51.164;-114.452;2023-01-26T01:33:59;88839.03;;;17.17;44.52
65019;BME280;66069;51.164;-114.452;2023-01-26T01:36:25;88820.47;;;17.10;44.49
65019;BME280;66069;51.164;-114.452;2023-01-26T01:38:51;88824.63;;;17.18;44.30
65019;BME280;66069;51.164;-114.452;2023-01-26T01:41:19;88801.91;;;17.17;44.52
65019;BME280;66069;51.164;-114.452;2023-01-26T01:43:48;88814.41;;;17.13;44.53
65019;BME280;66069;51.164;-114.452;2023-01-26T01:46:22;88808.34;;;17.12;44.76
65019;BME280;66069;51.164;-114.452;2023-01-26T01:49:00;88831.09;;;17.20;44.77
65019;BME280;66069;51.164;-114.452;2023-01-26T01:51:41;88825.78;;;17.20;44.91
65019;BME280;66069;51.164;-114.452;2023-01-26T01:54:12;88840.16;;;17.23;44.87
65019;BME280;66069;51.164;-114.452;2023-01-26T01:56:43;88837.53;;;17.23;44.75
65019;BME280;66069;51.164;-114.452;2023-01-26T01:59:14;88815.56;;;17.15;44.86
65019;BME280;66069;51.164;-114.452;2023-01-26T02:01:40;88798.50;;;17.20;44.83
65019;BME280;66069;51.164;-114.452;2023-01-26T02:04:07;88793.19;;;17.20;44.89
65019;BME280;66069;51.164;-114.452;2023-01-26T02:06:39;88785.59;;;17.08;44.68
65019;BME280;66069;51.164;-114.452;2023-01-26T02:09:10;88783.00;;;17.15;44.62
65019;BME280;66069;51.164;-114.452;2023-01-26T02:12:02;88795.47;;;17.25;44.66
65019;BME280;66069;51.164;-114.452;2023-01-26T02:14:31;88790.94;;;17.26;44.86
65019;BME280;66069;51.164;-114.452;2023-01-26T02:16:57;88769.00;;;17.14;44.83
65019;BME280;66069;51.164;-114.452;2023-01-26T02:22:36;88773.53;;;17.21;44.89
65019;BME280;66069;51.164;-114.452;2023-01-26T02:28:07;88767.84;;;17.26;45.00
65019;BME280;66069;51.164;-114.452;2023-01-26T02:30:33;88766.34;;;17.21;44.95
65019;BME280;66069;51.164;-114.452;2023-01-26T02:33:00;88736.03;;;17.19;45.05
65019;BME280;66069;51.164;-114.452;2023-01-26T02:35:26;88739.06;;;17.10;44.98
65019;BME280;66069;51.164;-114.452;2023-01-26T02:37:53;88732.25;;;17.13;44.98
65019;BME280;66069;51.164;-114.452;2023-01-26T02:43:04;88711.44;;;17.11;44.96
65019;BME280;66069;51.164;-114.452;2023-01-26T02:45:32;88716.34;;;17.16;45.22
65019;BME280;66069;51.164;-114.452;2023-01-26T02:47:59;88718.25;;;17.16;45.21
65019;BME280;66069;51.164;-114.452;2023-01-26T02:50:30;88705.00;;;17.19;45.29
65019;BME280;66069;51.164;-114.452;2023-01-26T02:52:57;88694.78;;;17.11;45.20
65019;BME280;66069;51.164;-114.452;2023-01-26T02:55:23;88709.53;;;17.30;45.25
65019;BME280;66069;51.164;-114.452;2023-01-26T02:57:52;88698.19;;;17.22;45.25
65019;BME280;66069;51.164;-114.452;2023-01-26T03:00:22;88708.03;;;17.25;45.16
65019;BME280;66069;51.164;-114.452;2023-01-26T03:02:50;88706.88;;;17.26;45.17
65019;BME280;66069;51.164;-114.452;2023-01-26T03:05:18;88705.75;;;17.31;45.32
65019;BME280;66069;51.164;-114.452;2023-01-26T03:07:44;88699.72;;;17.27;45.04
65019;BME280;66069;51.164;-114.452;2023-01-26T03:10:12;88694.41;;;17.23;45.16
65019;BME280;66069;51.164;-114.452;2023-01-26T03:12:40;88699.69;;;17.30;45.08
65019;BME280;66069;51.164;-114.452;2023-01-26T03:15:07;88676.59;;;17.20;45.13
65019;BME280;66069;51.164;-114.452;2023-01-26T03:18:04;88664.84;;;17.14;45.23
65019;BME280;66069;51.164;-114.452;2023-01-26T03:21:06;88676.63;;;17.27;45.28
65019;BME280;66069;51.164;-114.452;2023-01-26T03:23:51;88662.22;;;17.28;45.34
65019;BME280;66069;51.164;-114.452;2023-01-26T03:26:35;88647.44;;;17.20;45.38
65019;BME280;66069;51.164;-114.452;2023-01-26T03:29:20;88654.28;;;17.28;45.47
65019;BME280;66069;51.164;-114.452;2023-01-26T03:31:46;88640.63;;;17.19;45.20
65019;BME280;66069;51.164;-114.452;2023-01-26T03:34:13;88617.16;;;17.14;45.20
65019;BME280;66069;51.164;-114.452;2023-01-26T03:36:39;88658.44;;;17.29;45.44
65019;BME280;66069;51.164;-114.452;2023-01-26T03:39:05;88645.53;;;17.31;45.36
65019;BME280;66069;51.164;-114.452;2023-01-26T03:41:32;88629.66;;;17.28;45.63
65019;BME280;66069;51.164;-114.452;2023-01-26T03:44:16;88628.13;;;17.34;45.59
65019;BME280;66069;51.164;-114.452;2023-01-26T03:47:01;88616.41;;;17.28;45.60
65019;BME280;66069;51.164;-114.452;2023-01-26T03:49:45;88615.25;;;17.32;45.69
65019;BME280;66069;51.164;-114.452;2023-01-26T03:52:31;88589.53;;;17.11;45.60
65019;BME280;66069;51.164;-114.452;2023-01-26T03:55:16;88599.38;;;17.29;45.62
65019;BME280;66069;51.164;-114.452;2023-01-26T03:58:01;88605.06;;;17.27;45.79
65019;BME280;66069;51.164;-114.452;2023-01-26T04:00:27;88605.41;;;17.40;45.67
65019;BME280;66069;51.164;-114.452;2023-01-26T04:02:53;88590.69;;;17.21;45.63
65019;BME280;66069;51.164;-114.452;2023-01-26T04:05:38;88591.78;;;17.23;45.79
65019;BME280;66069;51.164;-114.452;2023-01-26T04:08:22;88596.69;;;17.39;45.67
65019;BME280;66069;51.164;-114.452;2023-01-26T04:10:50;88594.03;;;17.32;45.70
65019;BME280;66069;51.164;-114.452;2023-01-26T04:13:21;88577.38;;;17.35;45.49
65019;BME280;66069;51.164;-114.452;2023-01-26T04:16:06;88575.88;;;17.34;45.57
65019;BME280;66069;51.164;-114.452;2023-01-26T04:18:51;88568.28;;;17.36;45.68
65019;BME280;66069;51.164;-114.452;2023-01-26T04:21:36;88556.56;;;17.30;45.46
65019;BME280;66069;51.164;-114.452;2023-01-26T04:24:04;88579.25;;;17.45;45.60
65019;BME280;66069;51.164;-114.452;2023-01-26T04:26:39;88565.25;;;17.38;45.65
65019;BME280;66069;51.164;-114.452;2023-01-26T04:29:12;88572.81;;;17.46;45.66
65019;BME280;66069;51.164;-114.452;2023-01-26T04:31:39;88559.19;;;17.41;45.85
65019;BME280;66069;51.164;-114.452;2023-01-26T04:34:09;88545.56;;;17.42;45.92
65019;BME280;66069;51.164;-114.452;2023-01-26T04:36:36;88545.53;;;17.49;45.90
65019;BME280;66069;51.164;-114.452;2023-01-26T04:39:03;88538.75;;;17.41;45.96
65019;BME280;66069;51.164;-114.452;2023-01-26T04:41:30;88534.94;;;17.46;46.00
65019;BME280;66069;51.164;-114.452;2023-01-26T04:43:57;88533.41;;;17.48;45.74
65019;BME280;66069;51.164;-114.452;2023-01-26T04:46:23;88509.97;;;17.40;45.77
65019;BME280;66069;51.164;-114.452;2023-01-26T04:48:50;88506.56;;;17.39;45.80
65019;BME280;66069;51.164;-114.452;2023-01-26T04:51:18;88505.78;;;17.39;45.78
65019;BME280;66069;51.164;-114.452;2023-01-26T04:53:46;88526.97;;;17.53;45.67
65019;BME280;66069;51.164;-114.452;2023-01-26T04:56:24;88504.28;;;17.41;45.67
65019;BME280;66069;51.164;-114.452;2023-01-26T04:58:52;88508.81;;;17.48;45.54
65019;BME280;66069;51.164;-114.452;2023-01-26T05:01:19;88477.06;;;17.34;45.75
65019;BME280;66069;51.164;-114.452;2023-01-26T05:03:45;88487.25;;;17.35;45.70
65019;BME280;66069;51.164;-114.452;2023-01-26T05:06:12;88497.09;;;17.45;45.61
65019;BME280;66069;51.164;-114.452;2023-01-26T05:08:39;88492.53;;;17.46;45.63
65019;BME280;66069;51.164;-114.452;2023-01-26T05:11:05;88488.34;;;17.45;45.43
65019;BME280;66069;51.164;-114.452;2023-01-26T05:13:32;88484.19;;;17.47;45.53
65019;BME280;66069;51.164;-114.452;2023-01-26T05:16:03;88466.38;;;17.44;45.46
65019;BME280;66069;51.164;-114.452;2023-01-26T05:18:29;88461.88;;;17.38;45.52
65019;BME280;66069;51.164;-114.452;2023-01-26T05:20:56;88461.13;;;17.41;45.53
65019;BME280;66069;51.164;-114.452;2023-01-26T05:23:23;88459.22;;;17.41;45.33
65019;BME280;66069;51.164;-114.452;2023-01-26T05:25:49;88453.56;;;17.36;45.37
65019;BME280;66069;51.164;-114.452;2023-01-26T05:28:16;88447.81;;;17.44;45.26
65019;BME280;66069;51.164;-114.452;2023-01-26T05:30:42;88459.56;;;17.43;45.33
65019;BME280;66069;51.164;-114.452;2023-01-26T05:33:09;88454.66;;;17.45;45.19
65019;BME280;66069;51.164;-114.452;2023-01-26T05:35:36;88445.97;;;17.38;45.17
65019;BME280;66069;51.164;-114.452;2023-01-26T05:38:03;88441.41;;;17.38;45.24
65019;BME280;66069;51.164;-114.452;2023-01-26T05:40:29;88437.66;;;17.39;45.15
65019;BME280;66069;51.164;-114.452;2023-01-26T05:42:55;88438.38;;;17.43;45.08
65019;BME280;66069;51.164;-114.452;2023-01-26T05:45:22;88428.56;;;17.40;45.23
65019;BME280;66069;51.164;-114.452;2023-01-26T05:47:48;88426.66;;;17.37;45.17
65019;BME280;66069;51.164;-114.452;2023-01-26T05:50:14;88418.00;;;17.30;45.10
65019;BME280;66069;51.164;-114.452;2023-01-26T05:52:42;88430.81;;;17.38;45.10
65019;BME280;66069;51.164;-114.452;2023-01-26T05:55:11;88430.06;;;17.38;45.14
65019;BME280;66069;51.164;-114.452;2023-01-26T05:57:38;88424.44;;;17.29;44.87
65019;BME280;66069;51.164;-114.452;2023-01-26T06:00:05;88439.16;;;17.37;45.09
65019;BME280;66069;51.164;-114.452;2023-01-26T06:02:32;88430.84;;;17.35;45.13
65019;BME280;66069;51.164;-114.452;2023-01-26T06:04:58;88426.31;;;17.32;44.96
65019;BME280;66069;51.164;-114.452;2023-01-26T06:07:24;88428.97;;;17.28;45.02
65019;BME280;66069;51.164;-114.452;2023-01-26T06:09:53;88437.31;;;17.27;44.96
65019;BME280;66069;51.164;-114.452;2023-01-26T06:12:22;88450.53;;;17.34;45.18
65019;BME280;66069;51.164;-114.452;2023-01-26T06:14:48;88449.03;;;17.29;44.99
65019;BME280;66069;51.164;-114.452;2023-01-26T06:17:16;88439.19;;;17.26;44.93
65019;BME280;66069;51.164;-114.452;2023-01-26T06:19:43;88430.13;;;17.27;44.85
65019;BME280;66069;51.164;-114.452;2023-01-26T06:22:10;88418.03;;;17.19;44.81
65019;BME280;66069;51.164;-114.452;2023-01-26T06:24:37;88443.81;;;17.15;44.91
65019;BME280;66069;51.164;-114.452;2023-01-26T06:27:05;88451.34;;;17.27;45.03
65019;BME280;66069;51.164;-114.452;2023-01-26T06:29:32;88420.28;;;17.24;44.98
65019;BME280;66069;51.164;-114.452;2023-01-26T06:31:59;88429.00;;;17.25;44.82
65019;BME280;66069;51.164;-114.452;2023-01-26T06:34:25;88408.94;;;17.20;44.71
65019;BME280;66069;51.164;-114.452;2023-01-26T06:36:52;88423.28;;;17.26;44.72
65019;BME280;66069;51.164;-114.452;2023-01-26T06:39:19;88399.88;;;17.17;44.76
65019;BME280;66069;51.164;-114.452;2023-01-26T06:41:45;88404.38;;;17.24;44.85
65019;BME280;66069;51.164;-114.452;2023-01-26T06:44:11;88383.22;;;17.17;44.89
65019;BME280;66069;51.164;-114.452;2023-01-26T06:46:38;88399.44;;;17.26;44.75
65019;BME280;66069;51.164;-114.452;2023-01-26T06:49:05;88385.88;;;17.13;44.73
65019;BME280;66069;51.164;-114.452;2023-01-26T06:54:23;88388.13;;;17.22;44.83
65019;BME280;66069;51.164;-114.452;2023-01-26T06:56:49;88364.72;;;17.10;44.79
65019;BME280;66069;51.164;-114.452;2023-01-26T06:59:15;88385.13;;;17.16;44.70
65019;BME280;66069;51.164;-114.452;2023-01-26T07:01:44;88388.53;;;17.20;44.76
65019;BME280;66069;51.164;-114.452;2023-01-26T07:04:15;88380.56;;;17.17;44.74
65019;BME280;66069;51.164;-114.452;2023-01-26T07:06:41;88358.63;;;17.13;44.78
65019;BME280;66069;51.164;-114.452;2023-01-26T07:09:08;88374.16;;;17.11;44.68
65019;BME280;66069;51.164;-114.452;2023-01-26T07:11:35;88363.97;;;17.06;44.84
65019;BME280;66069;51.164;-114.452;2023-01-26T07:14:02;88363.22;;;17.09;44.87
65019;BME280;66069;51.164;-114.452;2023-01-26T07:16:28;88361.72;;;17.01;44.97
65019;BME280;66069;51.164;-114.452;2023-01-26T07:18:54;88355.25;;;17.09;44.84
65019;BME280;66069;51.164;-114.452;2023-01-26T07:21:22;88363.19;;;17.12;44.81
65019;BME280;66069;51.164;-114.452;2023-01-26T07:23:48;88360.56;;;17.09;44.70
65019;BME280;66069;51.164;-114.452;2023-01-26T07:26:16;88345.81;;;17.04;44.85
65019;BME280;66069;51.164;-114.452;2023-01-26T07:28:43;88354.50;;;17.08;44.78
65019;BME280;66069;51.164;-114.452;2023-01-26T07:31:10;88347.72;;;17.04;44.59
65019;BME280;66069;51.164;-114.452;2023-01-26T07:33:37;88356.41;;;17.01;44.61
65019;BME280;66069;51.164;-114.452;2023-01-26T07:36:03;88352.63;;;17.02;44.58
65019;BME280;66069;51.164;-114.452;2023-01-26T07:38:31;88349.63;;;17.00;44.61
65019;BME280;66069;51.164;-114.452;2023-01-26T07:41:02;88342.84;;;16.91;44.55
65019;BME280;66069;51.164;-114.452;2023-01-26T07:43:32;88353.75;;;17.04;44.52
65019;BME280;66069;51.164;-114.452;2023-01-26T07:45:58;88335.66;;;16.88;44.56
65019;BME280;66069;51.164;-114.452;2023-01-26T07:48:25;88352.63;;;17.02;44.53
65019;BME280;66069;51.164;-114.452;2023-01-26T07:50:51;88347.34;;;16.98;44.57
65019;BME280;66069;51.164;-114.452;2023-01-26T07:53:17;88325.44;;;16.90;44.83
65019;BME280;66069;51.164;-114.452;2023-01-26T07:55:45;88322.03;;;16.93;44.65
65019;BME280;66069;51.164;-114.452;2023-01-26T07:58:11;88323.91;;;16.93;44.65
65019;BME280;66069;51.164;-114.452;2023-01-26T08:00:38;88325.41;;;16.94;44.57
65019;BME280;66069;51.164;-114.452;2023-01-26T08:03:05;88310.63;;;17.00;44.60
65019;BME280;66069;51.164;-114.452;2023-01-26T08:05:31;88275.53;;;16.85;44.61
65019;BME280;66069;51.164;-114.452;2023-01-26T08:07:59;88270.59;;;16.91;44.59
65019;BME280;66069;51.164;-114.452;2023-01-26T08:10:28;88289.47;;;16.97;44.50
65019;BME280;66069;51.164;-114.452;2023-01-26T08:12:58;88280.03;;;16.92;44.55
65019;BME280;66069;51.164;-114.452;2023-01-26T08:15:26;88264.53;;;16.90;44.50
65019;BME280;66069;51.164;-114.452;2023-01-26T08:17:53;88251.34;;;16.83;44.79
65019;BME280;66069;51.164;-114.452;2023-01-26T08:20:20;88239.56;;;16.88;44.55
65019;BME280;66069;51.164;-114.452;2023-01-26T08:22:46;88238.81;;;16.87;44.52
65019;BME280;66069;51.164;-114.452;2023-01-26T08:25:12;88235.81;;;16.82;44.54
65019;BME280;66069;51.164;-114.452;2023-01-26T08:27:39;88230.16;;;16.80;44.59
65019;BME280;66069;51.164;-114.452;2023-01-26T08:30:06;88226.75;;;16.79;44.52
65019;BME280;66069;51.164;-114.452;2023-01-26T08:32:32;88227.91;;;16.78;44.57
65019;BME280;66069;51.164;-114.452;2023-01-26T08:34:58;88216.94;;;16.76;44.57
65019;BME280;66069;51.164;-114.452;2023-01-26T08:37:25;88227.53;;;16.76;44.57
65019;BME280;66069;51.164;-114.452;2023-01-26T08:39:51;88230.91;;;16.84;44.33
65019;BME280;66069;51.164;-114.452;2023-01-26T08:42:17;88227.88;;;16.82;44.54
65019;BME280;66069;51.164;-114.452;2023-01-26T08:44:44;88215.41;;;16.79;44.46
65019;BME280;66069;51.164;-114.452;2023-01-26T08:47:10;88213.47;;;16.83;44.52
65019;BME280;66069;51.164;-114.452;2023-01-26T08:49:36;88189.34;;;16.74;44.53
65019;BME280;66069;51.164;-114.452;2023-01-26T08:52:03;88185.91;;;16.80;44.26
65019;BME280;66069;51.164;-114.452;2023-01-26T08:54:29;88176.84;;;16.74;44.50
65019;BME280;66069;51.164;-114.452;2023-01-26T08:56:57;88168.50;;;16.76;44.77
65019;BME280;66069;51.164;-114.452;2023-01-26T08:59:23;88176.47;;;16.76;44.61
65019;BME280;66069;51.164;-114.452;2023-01-26T09:01:49;88153.03;;;16.67;44.61
65019;BME280;66069;51.164;-114.452;2023-01-26T09:04:16;88168.50;;;16.79;44.63
65019;BME280;66069;51.164;-114.452;2023-01-26T09:06:42;88148.50;;;16.64;44.47
65019;BME280;66069;51.164;-114.452;2023-01-26T09:09:09;88155.31;;;16.72;44.58
65019;BME280;66069;51.164;-114.452;2023-01-26T09:11:39;88120.94;;;16.58;44.40
65019;BME280;66069;51.164;-114.452;2023-01-26T09:14:05;88133.75;;;16.74;44.48
65019;BME280;66069;51.164;-114.452;2023-01-26T09:16:32;88121.69;;;16.65;44.52
65019;BME280;66069;51.164;-114.452;2023-01-26T09:18:58;88111.09;;;16.65;44.57
65019;BME280;66069;51.164;-114.452;2023-01-26T09:21:24;88111.84;;;16.66;44.60
65019;BME280;66069;51.164;-114.452;2023-01-26T09:23:51;88106.16;;;16.64;44.54
65019;BME280;66069;51.164;-114.452;2023-01-26T09:26:17;88073.69;;;16.56;44.48
65019;BME280;66069;51.164;-114.452;2023-01-26T09:28:44;88075.19;;;16.61;44.40
65019;BME280;66069;51.164;-114.452;2023-01-26T09:31:11;88060.84;;;16.58;44.29
65019;BME280;66069;51.164;-114.452;2023-01-26T09:33:37;88061.19;;;16.60;44.39
65019;BME280;66069;51.164;-114.452;2023-01-26T09:36:09;88055.50;;;16.62;44.44
65019;BME280;66069;51.164;-114.452;2023-01-26T09:38:36;88024.91;;;16.57;44.53
65019;BME280;66069;51.164;-114.452;2023-01-26T09:41:28;88047.53;;;16.65;44.39
65019;BME280;66069;51.164;-114.452;2023-01-26T09:44:11;88039.59;;;16.65;44.41
65019;BME280;66069;51.164;-114.452;2023-01-26T09:47:13;88041.50;;;16.65;44.28
65019;BME280;66069;51.164;-114.452;2023-01-26T09:50:07;88010.97;;;16.53;44.44
65019;BME280;66069;51.164;-114.452;2023-01-26T09:52:42;88007.91;;;16.55;44.35
65019;BME280;66069;51.164;-114.452;2023-01-26T09:55:16;87999.19;;;16.58;44.41
65019;BME280;66069;51.164;-114.452;2023-01-26T09:57:53;88007.84;;;16.62;44.68
65019;BME280;66069;51.164;-114.452;2023-01-26T10:00:27;87984.13;;;16.51;44.44
65019;BME280;66069;51.164;-114.452;2023-01-26T10:06:21;88008.66;;;16.59;44.42
65019;BME280;66069;51.164;-114.452;2023-01-26T10:08:49;87975.09;;;16.45;44.28
65019;BME280;66069;51.164;-114.452;2023-01-26T10:11:50;87974.63;;;16.57;44.46
65019;BME280;66069;51.164;-114.452;2023-01-26T10:16:48;87951.25;;;16.52;44.40
65019;BME280;66069;51.164;-114.452;2023-01-26T10:19:39;87930.94;;;16.38;44.50
65019;BME280;66069;51.164;-114.452;2023-01-26T10:22:19;87944.47;;;16.48;44.22
65019;BME280;66069;51.164;-114.452;2023-01-26T10:24:50;87936.13;;;16.49;44.35
65019;BME280;66069;51.164;-114.452;2023-01-26T10:27:17;87936.47;;;16.51;44.26
65019;BME280;66069;51.164;-114.452;2023-01-26T10:29:44;87913.09;;;16.46;44.36
65019;BME280;66069;51.164;-114.452;2023-01-26T10:32:13;87923.66;;;16.50;44.50
65019;BME280;66069;51.164;-114.452;2023-01-26T10:34:41;87910.16;;;16.37;44.38
65019;BME280;66069;51.164;-114.452;2023-01-26T10:37:25;87907.81;;;16.46;44.34
65019;BME280;66069;51.164;-114.452;2023-01-26T10:39:58;87900.66;;;16.43;44.41
65019;BME280;66069;51.164;-114.452;2023-01-26T10:42:31;87902.91;;;16.45;44.42
65019;BME280;66069;51.164;-114.452;2023-01-26T10:44:58;87896.09;;;16.43;44.51
65019;BME280;66069;51.164;-114.452;2023-01-26T10:47:27;87870.88;;;16.35;44.48
65019;BME280;66069;51.164;-114.452;2023-01-26T10:50:19;87865.84;;;16.45;44.30
65019;BME280;66069;51.164;-114.452;2023-01-26T10:53:02;87840.22;;;16.38;44.49
65019;BME280;66069;51.164;-114.452;2023-01-26T10:55:33;87838.72;;;16.37;44.66
65019;BME280;66069;51.164;-114.452;2023-01-26T10:58:02;87822.88;;;16.33;44.26
65019;BME280;66069;51.164;-114.452;2023-01-26T11:00:32;87816.81;;;16.33;44.10
65019;BME280;66069;51.164;-114.452;2023-01-26T11:03:17;87819.44;;;16.36;44.44
65019;BME280;66069;51.164;-114.452;2023-01-26T11:05:44;87809.28;;;16.31;44.45
65019;BME280;66069;51.164;-114.452;2023-01-26T11:08:34;87819.41;;;16.40;44.38
65019;BME280;66069;51.164;-114.452;2023-01-26T11:11:02;87807.72;;;16.37;44.36
65019;BME280;66069;51.164;-114.452;2023-01-26T11:13:29;87782.16;;;16.24;44.42
65019;BME280;66069;51.164;-114.452;2023-01-26T11:16:13;87811.09;;;16.38;44.25
65019;BME280;66069;51.164;-114.452;2023-01-26T11:21:12;87794.47;;;16.37;44.42
65019;BME280;66069;51.164;-114.452;2023-01-26T11:23:51;87783.56;;;16.35;44.39
65019;BME280;66069;51.164;-114.452;2023-01-26T11:40:35;87762.84;;;16.27;44.35
65019;BME280;66069;51.164;-114.452;2023-01-26T11:43:40;87772.75;;;16.23;44.45
65019;BME280;66069;51.164;-114.452;2023-01-26T11:46:44;87774.94;;;16.28;44.16
65019;BME280;66069;51.164;-114.452;2023-01-26T11:51:59;87779.50;;;16.27;44.24
65019;BME280;66069;51.164;-114.452;2023-01-26T11:57:06;87779.13;;;16.25;44.35
65019;BME280;66069;51.164;-114.452;2023-01-26T12:02:34;87778.78;;;16.23;44.23
65019;BME280;66069;51.164;-114.452;2023-01-26T12:05:19;87757.63;;;16.20;44.39
65019;BME280;66069;51.164;-114.452;2023-01-26T12:07:56;87772.75;;;16.23;44.24
65019;BME280;66069;51.164;-114.452;2023-01-26T12:10:36;87743.09;;;16.04;44.30
65019;BME280;66069;51.164;-114.452;2023-01-26T12:13:15;87776.53;;;16.22;44.13
65019;BME280;66069;51.164;-114.452;2023-01-26T12:15:54;87760.06;;;16.07;44.01
65019;BME280;66069;51.164;-114.452;2023-01-26T12:18:28;87776.56;;;16.18;44.23
65019;BME280;66069;51.164;-114.452;2023-01-26T12:21:01;87781.44;;;16.20;44.17
65019;BME280;66069;51.164;-114.452;2023-01-26T12:26:15;87789.44;;;16.16;44.20
65019;BME280;66069;51.164;-114.452;2023-01-26T12:29:08;87799.63;;;16.18;44.14
65019;BME280;66069;51.164;-114.452;2023-01-26T12:34:32;87785.72;;;16.10;44.13
65019;BME280;66069;51.164;-114.452;2023-01-26T12:42:55;87808.81;;;16.06;44.36
65019;BME280;66069;51.164;-114.452;2023-01-26T12:45:37;87799.41;;;16.01;44.25
65019;BME280;66069;51.164;-114.452;2023-01-26T12:50:38;87806.16;;;16.06;44.12
65019;BME280;66069;51.164;-114.452;2023-01-26T12:53:32;87811.44;;;16.09;44.29
65019;BME280;66069;51.164;-114.452;2023-01-26T12:56:20;87803.91;;;16.04;44.20
65019;BME280;66069;51.164;-114.452;2023-01-26T12:58:50;87801.72;;;15.96;44.35
65019;BME280;66069;51.164;-114.452;2023-01-26T13:01:21;87818.63;;;16.05;44.29
65019;BME280;66069;51.164;-114.452;2023-01-26T13:03:55;87824.28;;;16.07;44.36
65019;BME280;66069;51.164;-114.452;2023-01-26T13:06:24;87821.28;;;16.02;44.33
65019;BME280;66069;51.164;-114.452;2023-01-26T13:09:03;87820.88;;;16.07;44.49
65019;BME280;66069;51.164;-114.452;2023-01-26T13:11:51;87831.84;;;16.09;44.53
65019;BME280;66069;51.164;-114.452;2023-01-26T13:19:50;87815.50;;;16.14;44.80
65019;BME280;66069;51.164;-114.452;2023-01-26T13:25:38;87819.28;;;16.17;45.33
65019;BME280;66069;51.164;-114.452;2023-01-26T13:27:59;87805.34;;;16.12;45.74
65019;BME280;66069;51.164;-114.452;2023-01-26T13:30:41;87821.09;;;16.23;45.91
65019;BME280;66069;51.164;-114.452;2023-01-26T13:33:22;87828.97;;;16.30;46.06
65019;BME280;66069;51.164;-114.452;2023-01-26T13:35:50;87815.38;;;16.28;46.34
65019;BME280;66069;51.164;-114.452;2023-01-26T13:38:32;87840.13;;;16.45;46.30
65019;BME280;66069;51.164;-114.452;2023-01-26T13:41:01;87845.06;;;16.47;46.27
65019;BME280;66069;51.164;-114.452;2023-01-26T13:43:49;87822.81;;;16.40;46.16
65019;BME280;66069;51.164;-114.452;2023-01-26T13:48:59;87835.16;;;16.51;46.55
65019;BME280;66069;51.164;-114.452;2023-01-26T13:51:28;87840.03;;;16.56;46.54
65019;BME280;66069;51.164;-114.452;2023-01-26T13:54:14;87824.94;;;16.53;46.75
65019;BME280;66069;51.164;-114.452;2023-01-26T13:57:05;87856.13;;;16.72;46.57